Low, Canada
Current Conditions -  °F | °C
As of 7:00 AM on Monday 20 Oct 2014 (Local Time) from CYND Reporting Station
Broken Clouds Broken Clouds  
Wind Chill: 30°   Ceiling: 13000
Heat Index: 30°   Visibility: 15mi
Dew Point: 28°   Wind: 0mph
Humidity: 93%   Direction: NA
Pressure: 29.97"   Gusts: NA
Location:  45.8°N, 75.95°W
Report Text: CYND 201100Z 00000KT 15SM FEW040 BKN130 M01/M02 A2997 RMK SC2AC5 FROIN SLP152
Loading
Personal Weather Stations






























Interactive Weather Map
Tropical Storm Tracking
New forecast layout! Learn more

10-Day Weather Forecast

Advertisements
Track Severe Weather on mobile